Time;durP1;ratioP1;P1;durP2;ratioP2;P2;SDS_P1;SDS_P2;PMS_P1;PMS_P2;Temp;Humidity;BMP_temperature;BMP_pressure;BME280_temperature;BME280_humidity;BME280_pressure;Samples;Min_cycle;Max_cycle;Signal;HPM_P1;HPM_P2
2023/10/21 00:00:31;;;;;;;1.02;0.82;;;13.80;87.10;;;15.16;61.46;95026.97;5011134;28;20041;-53
2023/10/21 00:02:59;;;;;;;0.80;0.80;;;13.90;87.40;;;15.19;61.54;95029.13;5008761;28;20046;-53
2023/10/21 00:05:27;;;;;;;4.07;1.00;;;13.90;86.90;;;15.23;61.41;95038.28;5011117;28;20042;-48
2023/10/21 00:07:55;;;;;;;1.08;0.95;;;13.90;87.00;;;15.05;61.66;95025.25;5009723;28;20042;-50
2023/10/21 00:10:23;;;;;;;1.10;0.80;;;13.90;86.80;;;15.18;61.47;95038.25;5010008;28;20054;-53
2023/10/21 00:12:51;;;;;;;1.10;0.82;;;13.90;86.80;;;15.21;61.47;95036.94;5011080;28;20518;-49
2023/10/21 00:15:18;;;;;;;1.73;1.02;;;14.00;86.70;;;15.18;61.61;95038.25;5011139;28;20053;-49
2023/10/21 00:17:46;;;;;;;0.90;0.88;;;14.00;86.00;;;15.18;61.54;95040.94;5011243;28;20513;-52
2023/10/21 00:20:14;;;;;;;0.90;0.80;;;13.90;86.80;;;15.24;61.48;95039.13;5010634;28;20045;-51
2023/10/21 00:22:42;;;;;;;0.60;0.60;;;14.00;86.20;;;15.21;61.48;95043.09;5010096;28;20042;-48
2023/10/21 00:25:10;;;;;;;0.98;0.52;;;14.00;86.20;;;15.13;61.55;95046.25;5011031;28;20050;-50
2023/10/21 00:27:38;;;;;;;0.40;0.40;;;14.10;86.30;;;15.21;61.51;95064.53;5011106;28;20442;-50
2023/10/21 00:30:06;;;;;;;1.08;0.70;;;14.20;85.30;;;15.23;61.44;95069.66;5010778;28;20065;-51
2023/10/21 00:32:34;;;;;;;0.88;0.70;;;14.30;83.60;;;15.27;61.25;95084.16;5002861;28;20046;-50
2023/10/21 00:35:03;;;;;;;0.35;0.35;;;14.30;83.90;;;15.33;61.12;95070.56;5011054;28;20049;-53
2023/10/21 00:37:31;;;;;;;3.25;0.93;;;14.40;83.90;;;15.43;60.81;95067.16;5009677;28;20049;-52
2023/10/21 00:39:58;;;;;;;1.08;0.40;;;14.40;83.70;;;15.42;60.78;95068.22;5010620;28;20480;-52
2023/10/21 00:42:26;;;;;;;0.30;0.30;;;14.50;83.30;;;15.49;60.56;95079.56;4993503;28;20494;-52
2023/10/21 00:44:54;;;;;;;0.80;0.57;;;14.50;82.30;;;15.59;60.24;95064.63;5010986;28;20033;-49
2023/10/21 00:47:22;;;;;;;0.95;0.50;;;14.50;83.00;;;15.61;60.08;95076.69;5009662;28;20041;-53
2023/10/21 00:49:49;;;;;;;2.22;0.65;;;14.60;82.00;;;15.64;59.88;95084.22;5008972;28;20050;-53
2023/10/21 00:52:18;;;;;;;0.68;0.50;;;14.60;80.50;;;15.58;59.58;95095.97;5017716;28;20053;-53
2023/10/21 00:54:46;;;;;;;0.30;0.30;;;14.70;80.20;;;15.68;59.48;95087.19;5006237;28;20520;-49
2023/10/21 00:57:14;;;;;;;0.55;0.40;;;14.70;80.50;;;15.64;59.45;95102.19;5001059;28;20054;-53
2023/10/21 00:59:44;;;;;;;0.40;0.40;;;14.70;80.50;;;15.60;59.50;95111.81;5008847;28;20390;-47
2023/10/21 01:02:13;;;;;;;0.30;0.30;;;14.70;80.10;;;15.65;59.42;95115.34;5011124;28;20053;-51
2023/10/21 01:04:41;;;;;;;0.43;0.43;;;14.70;80.10;;;15.70;59.09;95101.16;5009124;28;20058;-49
2023/10/21 01:07:17;;;;;;;1.30;0.40;;;14.80;80.30;;;15.66;59.02;95132.25;5009049;28;20050;-53
2023/10/21 01:09:44;;;;;;;0.80;0.47;;;14.70;79.70;;;15.64;58.49;95124.44;5008848;28;20449;-53
2023/10/21 01:12:12;;;;;;;0.43;0.30;;;14.70;78.60;;;15.66;59.06;95138.41;5010511;28;20110;-53
2023/10/21 01:14:39;;;;;;;0.30;0.30;;;14.80;79.10;;;15.65;58.77;95128.75;5008977;28;20425;-53
2023/10/21 01:17:08;;;;;;;0.50;0.25;;;14.70;78.80;;;15.66;58.96;95143.78;5008939;28;20050;-53
2023/10/21 01:19:35;;;;;;;0.30;0.30;;;14.70;78.80;;;15.71;58.92;95149.19;5010075;28;20061;-52
2023/10/21 01:22:03;;;;;;;2.22;0.52;;;14.80;79.20;;;15.64;59.01;95145.09;5010309;28;20038;-50
2023/10/21 01:24:31;;;;;;;0.25;0.25;;;14.80;78.40;;;15.72;58.70;95153.50;5009309;28;20073;-50
2023/10/21 01:26:58;;;;;;;0.70;0.70;;;14.80;79.20;;;15.71;58.86;95153.75;5008202;28;20547;-53
2023/10/21 01:29:26;;;;;;;0.52;0.52;;;14.80;78.60;;;15.81;58.56;95163.78;5010452;28;20516;-53
2023/10/21 01:31:54;;;;;;;2.63;1.48;;;14.80;79.30;;;15.80;58.81;95160.31;5017452;28;20053;-51
2023/10/21 01:34:22;;;;;;;0.50;0.40;;;14.90;79.60;;;15.70;59.21;95161.00;5009119;28;20414;-53
2023/10/21 01:36:50;;;;;;;0.32;0.30;;;14.80;79.50;;;15.78;59.03;95166.97;5009275;28;20049;-51
2023/10/21 01:39:18;;;;;;;1.27;0.30;;;14.80;79.80;;;15.84;58.90;95174.84;5009329;28;20058;-50
2023/10/21 01:41:46;;;;;;;0.35;0.32;;;14.90;79.80;;;15.91;58.61;95179.97;5009374;28;20425;-50
2023/10/21 01:44:14;;;;;;;0.30;0.30;;;14.90;79.90;;;15.87;58.71;95200.34;5008858;28;20053;-49
2023/10/21 01:46:42;;;;;;;0.57;0.47;;;14.90;79.50;;;15.96;58.69;95195.31;5010349;28;20041;-49
2023/10/21 01:49:09;;;;;;;0.40;0.40;;;15.00;79.30;;;15.86;58.89;95198.72;5010068;28;20053;-54
2023/10/21 01:51:37;;;;;;;0.82;0.60;;;14.90;79.20;;;15.92;58.85;95205.75;5002672;28;20053;-53
2023/10/21 01:54:05;;;;;;;0.40;0.40;;;14.90;80.20;;;15.99;58.74;95206.34;5010439;28;20042;-53
2023/10/21 01:56:33;;;;;;;0.60;0.60;;;14.90;80.20;;;16.04;58.40;95214.44;5009268;28;20046;-49
2023/10/21 01:59:01;;;;;;;1.92;0.90;;;15.00;80.00;;;16.08;58.57;95214.75;5007790;28;20042;-53
2023/10/21 02:01:29;;;;;;;1.58;0.70;;;15.00;79.40;;;15.97;58.63;95224.56;5012072;28;20049;-53
2023/10/21 02:03:56;;;;;;;1.35;0.60;;;14.90;80.20;;;16.02;58.33;95230.00;5012915;28;20041;-50
2023/10/21 02:06:24;;;;;;;0.30;0.30;;;14.90;81.10;;;16.10;58.50;95234.88;5012560;28;20053;-51
2023/10/21 02:08:53;;;;;;;0.40;0.40;;;14.90;80.30;;;16.09;58.30;95243.19;5013433;28;20045;-53
2023/10/21 02:11:22;;;;;;;0.73;0.50;;;14.90;80.70;;;16.13;58.11;95247.00;5013777;28;20425;-54
2023/10/21 02:13:50;;;;;;;1.73;0.50;;;14.90;80.00;;;16.14;58.31;95262.03;5013819;28;20421;-52
2023/10/21 02:16:20;;;;;;;0.43;0.43;;;14.90;80.80;;;16.14;58.53;95262.84;5012486;28;20058;-52
2023/10/21 02:18:48;;;;;;;1.02;0.50;;;14.90;80.70;;;16.21;58.46;95272.59;5012140;28;20081;-51
2023/10/21 02:21:18;;;;;;;0.30;0.30;;;14.90;81.00;;;16.18;58.34;95273.88;5011882;28;20057;-52
2023/10/21 02:23:46;;;;;;;1.60;0.50;;;14.90;80.70;;;16.21;58.32;95277.94;5013225;28;20042;-49
2023/10/21 02:26:14;;;;;;;0.50;0.50;;;14.90;81.00;;;16.21;58.08;95294.06;5012946;28;20449;-50
2023/10/21 02:28:42;;;;;;;0.22;0.22;;;14.80;80.80;;;16.20;58.19;95293.22;5013075;28;20395;-52
2023/10/21 02:31:20;;;;;;;0.38;0.38;;;14.80;81.40;;;16.16;58.29;95294.78;5014033;28;20054;-51
2023/10/21 02:33:47;;;;;;;0.50;0.50;;;14.80;81.60;;;16.19;58.34;95302.34;5013226;28;20041;-51
2023/10/21 02:36:15;;;;;;;2.05;0.45;;;14.80;81.50;;;16.19;58.28;95312.25;5011474;28;20528;-51
2023/10/21 02:38:43;;;;;;;0.35;0.35;;;14.80;81.30;;;16.19;58.34;95314.94;5012222;28;20156;-50
2023/10/21 02:41:11;;;;;;;0.32;0.32;;;14.80;81.60;;;16.21;58.43;95326.25;5012502;28;20049;-51
2023/10/21 02:43:38;;;;;;;0.50;0.50;;;14.80;81.60;;;16.18;58.31;95321.38;4995270;28;20065;-50
2023/10/21 02:46:10;;;;;;;0.45;0.45;;;14.80;81.40;;;16.21;58.04;95345.84;5013013;28;20053;-52
2023/10/21 02:48:38;;;;;;;0.63;0.43;;;14.80;81.10;;;16.18;58.18;95332.13;5019525;28;20053;-51
2023/10/21 02:51:14;;;;;;;0.43;0.43;;;14.80;81.40;;;16.16;58.22;95343.09;5003652;28;20041;-52
2023/10/21 02:53:43;;;;;;;0.68;0.50;;;14.80;80.30;;;16.14;58.19;95342.56;5011142;28;20042;-49
2023/10/21 02:56:15;;;;;;;0.30;0.30;;;14.80;81.10;;;16.18;58.06;95353.59;5011502;28;20053;-53
2023/10/21 02:58:43;;;;;;;0.30;0.30;;;14.80;81.10;;;16.21;58.19;95353.91;5012178;28;20041;-50
2023/10/21 03:01:16;;;;;;;0.40;0.40;;;14.80;80.80;;;16.22;58.14;95363.56;5011721;28;20046;-51
2023/10/21 03:03:48;;;;;;;0.43;0.43;;;14.80;81.00;;;16.21;58.01;95370.03;5012580;28;20038;-54
2023/10/21 03:06:16;;;;;;;1.95;0.50;;;14.80;81.30;;;16.16;58.05;95372.63;5003475;28;20057;-52
2023/10/21 03:08:45;;;;;;;1.77;0.57;;;14.70;81.40;;;16.15;57.95;95376.41;5012616;28;20056;-52
2023/10/21 03:11:14;;;;;;;0.52;0.52;;;14.60;81.80;;;16.14;57.96;95380.13;5011357;28;20065;-53
2023/10/21 03:13:42;;;;;;;0.68;0.68;;;14.60;82.00;;;16.13;58.03;95382.00;5010596;28;20057;-51
2023/10/21 03:16:13;;;;;;;0.55;0.50;;;14.60;82.20;;;16.13;58.03;95392.75;5011185;28;20057;-51
2023/10/21 03:18:41;;;;;;;0.38;0.38;;;14.60;82.20;;;16.13;57.88;95387.38;5018987;28;20049;-51
2023/10/21 03:21:09;;;;;;;0.32;0.32;;;14.50;82.00;;;16.13;57.92;95391.94;5012495;28;20061;-53
2023/10/21 03:23:37;;;;;;;0.28;0.28;;;14.60;81.80;;;16.10;57.85;95397.81;5012313;28;20052;-54
2023/10/21 03:26:09;;;;;;;1.15;0.60;;;14.50;82.20;;;16.04;57.92;95413.03;5019246;28;20048;-48
2023/10/21 03:28:38;;;;;;;0.88;0.82;;;14.40;82.00;;;16.06;58.03;95410.91;5012164;28;20049;-52
2023/10/21 03:31:06;;;;;;;0.70;0.60;;;14.50;82.30;;;16.07;57.86;95414.41;5011495;28;20046;-51
2023/10/21 03:33:34;;;;;;;0.73;0.57;;;14.40;81.90;;;16.04;57.73;95410.34;5011814;28;20113;-50
2023/10/21 03:36:04;;;;;;;1.33;0.40;;;14.40;82.10;;;16.03;57.74;95422.16;5011079;28;20037;-52
2023/10/21 03:38:33;;;;;;;0.93;0.60;;;14.40;82.00;;;16.01;57.98;95432.31;5012182;28;20397;-54
2023/10/21 03:41:04;;;;;;;0.85;0.50;;;14.40;82.00;;;15.96;58.01;95428.78;5012190;28;20393;-50
2023/10/21 03:43:32;;;;;;;0.35;0.35;;;14.30;82.20;;;15.92;57.81;95428.44;5002378;28;20041;-51
2023/10/21 03:46:09;;;;;;;0.77;0.40;;;14.30;82.40;;;15.90;57.78;95427.91;5011666;28;20053;-52
2023/10/21 03:48:37;;;;;;;0.55;0.55;;;14.20;82.40;;;15.85;58.03;95438.56;5011660;28;20512;-49
2023/10/21 03:51:09;;;;;;;0.75;0.52;;;14.20;82.60;;;15.81;57.82;95440.91;5010851;28;20049;-51
2023/10/21 03:53:40;;;;;;;0.85;0.65;;;14.10;82.80;;;15.78;58.00;95438.75;5009532;28;20053;-53
2023/10/21 03:56:08;;;;;;;0.50;0.50;;;14.10;83.20;;;15.74;58.14;95442.94;5010882;28;20050;-49
2023/10/21 03:58:38;;;;;;;0.70;0.70;;;14.00;83.40;;;15.68;58.04;95439.38;5011968;28;20050;-50
2023/10/21 04:01:06;;;;;;;0.50;0.50;;;13.90;83.80;;;15.65;58.19;95441.75;5018443;28;20034;-51
2023/10/21 04:03:35;;;;;;;0.80;0.77;;;13.90;84.20;;;15.60;58.51;95447.81;5011448;28;20046;-52
2023/10/21 04:06:03;;;;;;;0.35;0.35;;;13.80;84.30;;;15.58;58.28;95458.00;5011435;28;20042;-54
2023/10/21 04:08:31;;;;;;;0.40;0.40;;;13.90;84.20;;;15.55;58.61;95450.47;5010960;28;20042;-51
2023/10/21 04:10:59;;;;;;;0.63;0.45;;;13.90;84.00;;;15.49;58.73;95465.66;5011500;28;20053;-50
2023/10/21 04:13:26;;;;;;;0.95;0.50;;;13.80;84.30;;;15.45;58.77;95471.72;5011238;28;20046;-48
2023/10/21 04:15:54;;;;;;;0.80;0.75;;;13.80;84.80;;;15.42;59.00;95477.59;5011370;28;20045;-49
2023/10/21 04:18:22;;;;;;;0.60;0.60;;;13.70;85.20;;;15.41;59.34;95481.31;5011542;28;20113;-48
2023/10/21 04:20:50;;;;;;;0.28;0.28;;;13.70;85.80;;;15.42;59.04;95486.44;5009998;28;20038;-54
2023/10/21 04:23:18;;;;;;;0.40;0.40;;;13.80;85.80;;;15.43;58.82;95487.25;5010532;28;20517;-51
2023/10/21 04:25:46;;;;;;;0.45;0.45;;;13.70;85.60;;;15.48;59.21;95498.88;5010833;28;20113;-48
2023/10/21 04:28:13;;;;;;;1.83;0.57;;;13.80;86.20;;;15.51;59.05;95497.59;5011441;28;20046;-52
2023/10/21 04:30:42;;;;;;;0.43;0.43;;;13.90;85.10;;;15.54;59.02;95502.44;5011018;28;20042;-49
2023/10/21 04:33:09;;;;;;;2.00;0.63;;;13.90;85.10;;;15.53;59.14;95506.22;5011188;28;20053;-51
2023/10/21 04:35:37;;;;;;;0.70;0.70;;;13.90;85.00;;;15.54;58.98;95502.44;5011141;28;20419;-50
2023/10/21 04:38:07;;;;;;;1.38;1.27;;;13.90;85.30;;;15.54;59.07;95513.19;5010112;28;20046;-50
2023/10/21 04:40:34;;;;;;;3.58;1.30;;;13.90;85.20;;;15.53;58.89;95517.72;5010944;28;20050;-50
2023/10/21 04:43:03;;;;;;;1.20;1.05;;;13.90;85.10;;;15.53;59.04;95514.25;5011086;28;20038;-53
2023/10/21 04:45:31;;;;;;;1.00;0.57;;;13.90;84.90;;;15.49;59.12;95505.88;5011012;28;20394;-50
2023/10/21 04:47:59;;;;;;;5.13;0.73;;;13.90;85.00;;;15.49;59.01;95516.59;5011039;28;20381;-53
2023/10/21 04:50:28;;;;;;;0.57;0.57;;;13.80;84.70;;;15.48;58.89;95517.66;5010870;28;20421;-49
2023/10/21 04:52:56;;;;;;;0.50;0.50;;;13.80;84.70;;;15.48;58.86;95531.06;5011268;28;20045;-52
2023/10/21 04:55:23;;;;;;;0.40;0.40;;;13.80;84.40;;;15.43;58.83;95531.00;5011007;28;20065;-52
2023/10/21 04:57:51;;;;;;;0.50;0.40;;;13.80;84.50;;;15.45;58.76;95534.25;5010574;28;20049;-54
2023/10/21 05:00:19;;;;;;;1.00;0.90;;;13.80;84.30;;;15.46;58.86;95529.69;5010679;28;20041;-52
2023/10/21 05:02:46;;;;;;;0.40;0.40;;;13.90;84.00;;;15.50;58.66;95536.19;5010883;28;20064;-44
2023/10/21 05:05:14;;;;;;;0.65;0.52;;;13.90;84.00;;;15.53;58.76;95535.69;5010739;28;20046;-43
2023/10/21 05:07:42;;;;;;;0.80;0.80;;;13.90;83.90;;;15.54;58.70;95546.16;5010751;28;20413;-44
2023/10/21 05:10:10;;;;;;;0.50;0.50;;;14.00;83.70;;;15.54;58.70;95546.16;5009853;28;20528;-43
2023/10/21 05:12:38;;;;;;;0.60;0.60;;;13.90;83.80;;;15.54;58.69;95546.16;5010723;28;20057;-45
2023/10/21 05:15:06;;;;;;;0.55;0.50;;;14.00;84.00;;;15.54;58.75;95559.56;5010850;28;20073;-43
2023/10/21 05:17:34;;;;;;;0.75;0.57;;;13.90;84.00;;;15.51;58.89;95567.31;5010838;28;20065;-43
2023/10/21 05:20:03;;;;;;;1.25;1.00;;;13.90;84.40;;;15.50;58.78;95571.03;5010498;28;20046;-43
2023/10/21 05:22:30;;;;;;;1.23;0.70;;;13.80;84.70;;;15.48;58.92;95581.19;5011643;28;20042;-45
2023/10/21 05:24:58;;;;;;;0.85;0.63;;;13.80;85.00;;;15.47;58.74;95569.66;5010995;28;20042;-43
2023/10/21 05:27:26;;;;;;;1.27;0.93;;;13.80;85.10;;;15.45;58.85;95577.13;5010621;28;20417;-45
2023/10/21 05:29:53;;;;;;;5.28;1.10;;;13.80;85.20;;;15.45;59.07;95589.72;5010523;28;20050;-44
2023/10/21 05:32:21;;;;;;;1.35;0.70;;;13.80;85.30;;;15.42;58.94;95595.56;5009339;28;20065;-44
2023/10/21 05:34:49;;;;;;;0.75;0.60;;;13.80;85.40;;;15.42;59.15;95601.75;5011886;28;20049;-44
2023/10/21 05:37:17;;;;;;;1.52;0.80;;;13.80;85.20;;;15.43;58.97;95605.22;5014752;28;20050;-43
2023/10/21 05:39:44;;;;;;;0.75;0.75;;;13.80;85.10;;;15.40;59.27;95611.09;5012976;28;20060;-42
2023/10/21 05:42:12;;;;;;;0.40;0.40;;;13.70;85.10;;;15.36;59.17;95616.91;5014869;28;20057;-43
2023/10/21 05:44:40;;;;;;;0.80;0.40;;;13.70;85.30;;;15.35;59.16;95625.19;5013853;28;20041;-42
2023/10/21 05:47:16;;;;;;;0.65;0.57;;;13.70;85.60;;;15.32;59.20;95631.06;5014459;28;20417;-43
2023/10/21 05:49:43;;;;;;;1.50;0.55;;;13.70;85.90;;;15.27;59.48;95634.44;5012679;28;20307;-43
2023/10/21 05:52:11;;;;;;;0.52;0.45;;;13.70;86.10;;;15.28;59.40;95657.53;5013996;28;20070;-43
2023/10/21 05:54:39;;;;;;;0.63;0.50;;;13.60;86.10;;;15.28;59.69;95657.53;5014077;28;20494;-44
2023/10/21 05:57:06;;;;;;;0.55;0.40;;;13.70;86.40;;;15.28;59.85;95657.53;5013826;28;20045;-42
2023/10/21 05:59:34;;;;;;;3.15;0.60;;;13.60;86.60;;;15.28;59.86;95662.09;5013363;28;20058;-44
2023/10/21 06:02:02;;;;;;;0.52;0.50;;;13.70;86.70;;;15.28;59.95;95675.47;5014038;28;20068;-43
2023/10/21 06:04:31;;;;;;;0.50;0.50;;;13.70;86.90;;;15.29;60.06;95677.91;5013753;28;20050;-44
2023/10/21 06:07:00;;;;;;;1.23;0.63;;;13.70;87.20;;;15.33;60.00;95680.91;5013663;28;20042;-48
2023/10/21 06:09:27;;;;;;;2.13;0.90;;;13.80;86.90;;;15.36;60.01;95685.81;5013625;28;20046;-46
2023/10/21 06:11:55;;;;;;;0.70;0.50;;;13.80;86.80;;;15.37;60.23;95692.78;5013582;28;20061;-46
2023/10/21 06:14:23;;;;;;;0.60;0.50;;;13.80;87.10;;;15.38;60.15;95694.44;5013711;28;20050;-44
2023/10/21 06:16:50;;;;;;;0.93;0.60;;;13.80;87.10;;;15.43;60.19;95702.59;5013934;28;20504;-44
2023/10/21 06:19:19;;;;;;;1.10;0.70;;;13.80;87.10;;;15.45;59.79;95705.84;5013188;28;20042;-43
2023/10/21 06:21:47;;;;;;;0.32;0.30;;;13.90;86.80;;;15.48;60.05;95710.72;5013396;28;20052;-43
2023/10/21 06:24:14;;;;;;;0.90;0.70;;;13.90;86.70;;;15.49;59.93;95709.66;5020341;28;20489;-42
2023/10/21 06:26:42;;;;;;;1.00;0.70;;;13.90;86.50;;;15.50;59.96;95711.28;5013360;28;20489;-44
2023/10/21 06:29:10;;;;;;;1.33;0.80;;;13.90;86.50;;;15.52;59.86;95713.72;5013294;28;20046;-44
2023/10/21 06:31:37;;;;;;;0.88;0.68;;;13.90;86.50;;;15.50;59.95;95719.31;5014054;28;20397;-43
2023/10/21 06:34:05;;;;;;;0.98;0.88;;;13.90;87.50;;;15.50;59.71;95734.59;5005454;28;20045;-44
2023/10/21 06:36:33;;;;;;;0.85;0.82;;;13.90;87.00;;;15.49;59.88;95736.50;5013767;28;20061;-44
2023/10/21 06:39:01;;;;;;;0.80;0.73;;;13.90;86.70;;;15.50;59.76;95739.97;5012744;28;20038;-44
2023/10/21 06:41:28;;;;;;;2.00;1.00;;;13.90;86.50;;;15.50;60.01;95745.34;5013058;28;20248;-43
2023/10/21 06:43:59;;;;;;;1.52;0.82;;;13.90;87.20;;;15.51;59.98;95742.41;5013349;28;20050;-42
2023/10/21 06:46:27;;;;;;;2.00;1.13;;;13.90;86.50;;;15.53;59.93;95753.72;5012278;28;20045;-43
2023/10/21 06:48:55;;;;;;;1.20;0.88;;;13.90;86.70;;;15.52;59.88;95759.31;5012654;28;20053;-44
2023/10/21 06:51:23;;;;;;;2.10;1.13;;;13.90;86.80;;;15.51;59.91;95765.75;5012694;28;20049;-43
2023/10/21 06:53:50;;;;;;;2.75;1.33;;;13.90;87.00;;;15.51;60.04;95766.56;5012605;28;20413;-43
2023/10/21 06:56:18;;;;;;;2.10;1.33;;;13.90;86.90;;;15.52;59.88;95776.22;5008560;28;20054;-42
2023/10/21 06:58:52;;;;;;;2.88;1.50;;;13.90;86.60;;;15.53;59.90;95787.78;5012327;28;20046;-46
2023/10/21 07:01:19;;;;;;;2.78;1.65;;;13.90;86.70;;;15.54;59.88;95794.75;5012707;28;20050;-43
2023/10/21 07:03:48;;;;;;;1.25;1.02;;;14.00;86.70;;;15.56;59.87;95790.78;5012673;28;20045;-46
2023/10/21 07:06:16;;;;;;;2.17;1.30;;;14.00;86.70;;;15.59;60.02;95796.75;5019533;28;20046;-44
2023/10/21 07:08:44;;;;;;;1.65;1.00;;;14.00;86.50;;;15.60;60.19;95803.72;5012331;28;20054;-43
2023/10/21 07:11:12;;;;;;;0.95;0.80;;;14.10;86.40;;;15.64;60.07;95803.00;5011501;28;20102;-47
2023/10/21 07:13:43;;;;;;;2.45;0.75;;;14.20;86.00;;;15.59;59.96;95804.78;5012400;28;20049;-47
2023/10/21 07:16:11;;;;;;;1.48;0.77;;;14.20;84.60;;;15.56;60.14;95804.19;5005113;28;20057;-46
2023/10/21 07:18:39;;;;;;;2.22;0.75;;;14.30;85.00;;;15.63;59.99;95814.00;5012330;28;20042;-47
2023/10/21 07:21:08;;;;;;;0.65;0.60;;;14.30;84.60;;;15.65;59.98;95826.09;5012261;28;20047;-47
2023/10/21 07:23:36;;;;;;;1.13;0.60;;;14.40;84.60;;;15.69;60.09;95827.25;5012507;28;20520;-44
2023/10/21 07:26:04;;;;;;;0.80;0.40;;;14.40;84.20;;;15.72;59.62;95825.94;5011763;28;20544;-44
2023/10/21 07:28:33;;;;;;;0.82;0.40;;;14.40;83.80;;;15.78;59.90;95822.38;5012080;28;20050;-48
2023/10/21 07:31:02;;;;;;;0.63;0.60;;;14.50;83.50;;;15.78;59.70;95824.22;5012282;28;20489;-46
2023/10/21 07:33:29;;;;;;;0.30;0.30;;;14.60;83.50;;;15.82;59.76;95831.56;5012150;28;20046;-45
2023/10/21 07:35:57;;;;;;;0.90;0.50;;;14.50;82.70;;;15.86;59.55;95845.34;5011650;28;20053;-49
2023/10/21 07:38:25;;;;;;;0.38;0.38;;;14.60;82.50;;;15.88;59.35;95846.72;5012199;28;20536;-45
2023/10/21 07:40:52;;;;;;;0.73;0.57;;;14.60;82.20;;;15.92;59.27;95847.06;5012512;28;20524;-44
2023/10/21 07:43:20;;;;;;;2.00;0.68;;;14.60;82.00;;;15.97;59.17;95843.63;5012053;28;20417;-49
2023/10/21 07:45:48;;;;;;;0.43;0.40;;;14.70;82.10;;;16.02;59.27;95855.28;5012090;28;20065;-47
2023/10/21 07:48:16;;;;;;;5.03;2.05;;;14.70;82.00;;;16.04;58.99;95855.88;5018646;28;20046;-44
2023/10/21 07:50:51;;;;;;;6.80;2.53;;;14.70;81.80;;;16.10;58.88;95872.88;5011947;28;20045;-51
2023/10/21 07:53:20;;;;;;;1.20;0.70;;;14.80;82.00;;;16.12;59.04;95868.91;5012139;28;20288;-45
2023/10/21 07:55:49;;;;;;;1.63;0.70;;;14.80;82.20;;;16.16;58.84;95881.84;5011721;28;20604;-43
2023/10/21 07:58:17;;;;;;;1.58;1.02;;;14.80;82.30;;;16.20;58.85;95891.06;5011883;28;20417;-46
2023/10/21 08:00:44;;;;;;;1.08;0.80;;;14.90;82.40;;;16.26;58.89;95893.59;5011350;28;20049;-44
2023/10/21 08:03:12;;;;;;;0.63;0.57;;;14.90;82.20;;;16.30;58.80;95891.25;5011541;28;20045;-43
2023/10/21 08:05:41;;;;;;;1.27;0.75;;;15.00;81.90;;;16.37;58.82;95904.53;5011210;28;20046;-44
2023/10/21 08:08:10;;;;;;;1.73;0.52;;;15.10;81.10;;;16.44;58.52;95905.19;5011471;28;20046;-44
2023/10/21 08:10:38;;;;;;;0.60;0.57;;;15.20;80.80;;;16.47;57.98;95910.09;5012059;28;20049;-45
2023/10/21 08:13:05;;;;;;;1.30;0.80;;;15.20;79.10;;;16.52;57.93;95911.00;5011618;28;20056;-44
2023/10/21 08:15:33;;;;;;;0.60;0.57;;;15.30;79.00;;;16.59;57.69;95918.91;5010592;28;20057;-46
2023/10/21 08:18:02;;;;;;;0.50;0.47;;;15.40;78.10;;;16.58;56.60;95914.59;5010280;28;20493;-43
2023/10/21 08:20:30;;;;;;;0.75;0.60;;;15.40;75.10;;;16.63;56.57;95927.28;5011043;28;20053;-44
2023/10/21 08:22:58;;;;;;;1.15;1.15;;;15.50;75.30;;;16.67;56.35;95931.97;5011259;28;20498;-44
2023/10/21 08:25:25;;;;;;;0.40;0.40;;;15.60;74.60;;;16.71;55.74;95935.78;5011260;28;20038;-44
2023/10/21 08:27:53;;;;;;;0.80;0.40;;;15.60;71.20;;;16.74;55.56;95934.47;5011381;28;20053;-43
2023/10/21 08:30:20;;;;;;;0.32;0.32;;;15.70;73.50;;;16.81;55.30;95953.97;5011159;28;20049;-45
2023/10/21 08:32:50;;;;;;;0.68;0.57;;;15.80;72.00;;;16.83;54.79;95953.75;5010968;28;20056;-45
2023/10/21 08:35:18;;;;;;;0.85;0.82;;;15.90;72.00;;;16.95;54.75;95949.13;5010758;28;20042;-46
2023/10/21 08:37:46;;;;;;;0.60;0.47;;;15.90;71.70;;;16.97;53.45;95957.75;5011475;28;20050;-44
2023/10/21 08:40:13;;;;;;;0.73;0.65;;;16.00;68.30;;;17.04;54.07;95955.75;5009911;28;20482;-43
2023/10/21 08:42:41;;;;;;;0.80;0.68;;;16.10;70.70;;;17.15;54.18;95955.91;5018333;28;20042;-43
2023/10/21 08:45:31;;;;;;;0.40;0.40;;;16.10;71.00;;;17.21;53.94;95954.91;5017384;28;20038;-43
2023/10/21 08:48:01;;;;;;;0.50;0.50;;;16.20;70.60;;;17.25;52.92;95959.59;5010865;28;20038;-44
2023/10/21 08:50:35;;;;;;;0.50;0.50;;;16.20;67.50;;;17.18;52.96;95953.53;4998209;28;20053;-45
2023/10/21 08:53:06;;;;;;;1.23;0.65;;;16.20;67.70;;;17.25;53.14;95942.59;5018487;28;20037;-46
2023/10/21 08:55:38;;;;;;;0.55;0.55;;;16.30;68.00;;;17.32;52.87;95954.03;4994005;28;20457;-43
2023/10/21 08:58:06;;;;;;;0.90;0.68;;;16.40;68.40;;;17.35;52.83;95960.78;5004968;28;20069;-45
2023/10/21 09:00:35;;;;;;;1.77;0.95;;;16.40;67.70;;;17.43;52.46;95973.84;5005283;28;20054;-44
2023/10/21 09:03:03;;;;;;;1.25;0.68;;;16.50;68.80;;;17.49;52.14;95979.03;5007080;28;20417;-46
2023/10/21 09:05:34;;;;;;;2.90;0.80;;;16.50;66.70;;;17.59;52.37;95980.25;5006950;28;20038;-44
2023/10/21 09:08:02;;;;;;;1.45;0.68;;;16.60;67.70;;;17.66;52.60;95986.25;5003036;28;20038;-44
2023/10/21 09:10:32;;;;;;;8.95;1.00;;;16.60;68.20;;;17.59;53.02;95991.03;5013814;28;20508;-44
2023/10/21 09:13:14;;;;;;;0.55;0.50;;;16.70;68.80;;;17.76;53.04;96005.28;5015278;28;20049;-44
2023/10/21 09:15:42;;;;;;;1.60;0.90;;;16.80;68.60;;;17.83;52.78;96013.16;5014663;28;20054;-48
2023/10/21 09:18:10;;;;;;;2.35;0.60;;;16.80;67.70;;;17.85;52.74;96016.47;5014830;28;20057;-43
2023/10/21 09:20:38;;;;;;;3.08;1.20;;;16.90;68.70;;;17.91;52.16;96007.38;5014751;28;20413;-45
2023/10/21 09:23:06;;;;;;;0.70;0.70;;;16.90;67.80;;;17.93;51.84;96021.41;5014740;28;20046;-47
2023/10/21 09:25:34;;;;;;;1.20;1.10;;;16.90;66.60;;;17.85;52.10;96028.03;5014420;28;20406;-47
2023/10/21 09:28:03;;;;;;;1.05;0.95;;;16.70;67.70;;;17.63;52.10;96022.56;5014567;28;20395;-45
2023/10/21 09:30:32;;;;;;;1.17;0.80;;;16.50;68.40;;;17.62;52.07;96023.63;5021482;28;20046;-47
2023/10/21 09:33:10;;;;;;;1.23;0.90;;;16.40;67.90;;;17.52;51.55;96026.16;5014469;28;20045;-47
2023/10/21 09:35:38;;;;;;;2.60;0.80;;;16.30;67.10;;;17.53;51.92;96033.19;5014404;28;20042;-45
2023/10/21 09:38:16;;;;;;;2.22;0.90;;;16.30;67.40;;;17.42;51.69;96026.00;5014113;28;20046;-46
2023/10/21 09:40:45;;;;;;;1.60;0.88;;;16.30;67.40;;;17.46;52.03;96027.13;5014379;28;20041;-44
2023/10/21 09:43:13;;;;;;;1.00;0.75;;;16.20;68.20;;;17.45;51.87;96028.22;5014176;28;20429;-45
2023/10/21 09:45:44;;;;;;;0.82;0.60;;;16.30;68.30;;;17.45;52.03;96026.31;5014178;28;20105;-46
2023/10/21 09:48:12;;;;;;;2.08;0.63;;;16.30;68.30;;;17.53;52.17;96041.25;5014228;28;20046;-44
2023/10/21 09:50:50;;;;;;;1.63;0.90;;;16.30;69.20;;;17.58;52.22;96037.81;5020975;28;20525;-46
2023/10/21 09:53:24;;;;;;;1.60;0.88;;;16.40;68.90;;;17.61;52.05;96034.66;5014086;28;20077;-45
2023/10/21 09:55:55;;;;;;;1.60;0.60;;;16.40;68.50;;;17.55;51.68;96036.44;5011483;28;20434;-45
2023/10/21 09:58:26;;;;;;;0.65;0.65;;;16.40;67.60;;;17.52;51.65;96045.81;5013200;28;20508;-45
2023/10/21 10:00:55;;;;;;;1.05;0.70;;;16.40;68.00;;;17.45;51.62;96042.47;5020609;28;20045;-46
2023/10/21 10:03:25;;;;;;;1.65;1.25;;;16.30;66.90;;;17.30;51.65;96032.25;5020882;28;20038;-47
2023/10/21 10:05:53;;;;;;;1.08;0.93;;;16.20;67.70;;;17.49;52.00;96037.41;5013799;28;20069;-48
2023/10/21 10:08:21;;;;;;;2.63;0.85;;;16.30;68.80;;;17.61;51.75;96040.84;5020897;28;20057;-48
2023/10/21 10:10:50;;;;;;;3.88;2.88;;;16.40;68.40;;;17.69;51.84;96037.72;5013620;28;20061;-47
2023/10/21 10:13:18;;;;;;;2.17;1.45;;;16.50;68.20;;;17.77;51.79;96033.81;5020661;28;20049;-43
2023/10/21 10:15:46;;;;;;;4.55;2.97;;;16.60;68.20;;;17.77;51.02;96038.38;5013707;28;20386;-47
2023/10/21 10:18:19;;;;;;;1.90;1.52;;;16.60;65.80;;;17.79;51.18;96031.69;5013453;28;20046;-46
2023/10/21 10:20:50;;;;;;;1.85;1.73;;;16.60;66.70;;;17.76;50.72;96031.34;5013461;28;20044;-45
2023/10/21 10:23:20;;;;;;;1.60;1.25;;;16.50;66.50;;;17.78;50.62;96024.69;5013624;28;20049;-44
2023/10/21 10:25:52;;;;;;;1.55;1.10;;;16.50;65.70;;;17.79;50.77;96028.19;5013468;28;20057;-49